createdAt,value
2023-04-15T08:01:33.011Z,6.8
2023-04-15T08:06:32.552Z,5.8
2023-04-15T08:11:32.024Z,2.5
2023-04-15T08:16:31.584Z,8
2023-04-15T08:21:31.125Z,2.5
2023-04-15T08:26:30.625Z,2.6
2023-04-15T08:31:30.242Z,1.6
2023-04-15T08:36:29.675Z,2.1
2023-04-15T08:41:29.184Z,1.4
2023-04-15T08:46:28.815Z,1.6
2023-04-15T08:51:28.264Z,1
2023-04-15T08:56:27.876Z,2.2
2023-04-15T09:01:27.404Z,2.4
2023-04-15T09:06:26.896Z,1.6
2023-04-15T09:11:26.470Z,1.6
2023-04-15T09:51:23.140Z,3.6
2023-04-15T09:56:22.620Z,0.9
2023-04-15T10:01:22.222Z,1.2
2023-04-15T10:06:21.757Z,6.6
2023-04-15T10:11:21.395Z,1.3
2023-04-15T10:21:20.572Z,1.8
2023-04-15T10:26:20.182Z,0.9
2023-04-15T10:31:19.844Z,0.9
2023-04-15T10:36:19.412Z,1.1
2023-04-15T10:41:20.481Z,0.4
2023-04-15T10:46:18.673Z,0.4
2023-04-15T10:51:18.218Z,0.8
2023-04-15T10:56:17.841Z,0.3
2023-04-15T11:01:17.450Z,0.8
2023-04-15T11:06:17.067Z,0.6
2023-04-15T11:11:16.670Z,0.6
2023-04-15T13:36:05.065Z,4.3
2023-04-15T13:41:04.668Z,9
2023-04-15T13:46:04.350Z,1.6
2023-04-15T13:51:03.887Z,2.5
2023-04-15T13:56:03.498Z,2.2
2023-04-15T14:01:05.239Z,1.3
2023-04-15T14:06:02.704Z,1.8
2023-04-15T14:11:02.318Z,1.4
2023-04-15T14:16:01.948Z,0.8
2023-04-15T14:21:01.582Z,2.5
2023-04-15T14:26:01.203Z,0.8
2023-04-15T14:31:00.811Z,0.9
2023-04-15T14:36:00.436Z,1.3
2023-04-15T14:41:00.007Z,1
2023-04-15T14:45:59.667Z,0.9
2023-04-15T14:50:59.208Z,1.1
2023-04-15T14:55:58.762Z,3.1
2023-04-15T15:00:58.472Z,1.6
2023-04-15T15:05:58.082Z,1.1
2023-04-15T15:10:57.612Z,1.6
2023-04-15T15:15:57.236Z,0.9
2023-04-15T15:20:56.778Z,1.4
2023-04-15T15:25:56.440Z,2.2
2023-04-15T15:30:56.128Z,1.7
2023-04-15T15:35:55.616Z,1.4
2023-04-15T15:40:55.246Z,2
2023-04-15T15:45:54.800Z,5.1
2023-04-15T15:50:54.405Z,3.1
2023-04-15T15:55:54.133Z,1.8
2023-04-15T16:00:53.617Z,2.1
2023-04-15T16:05:53.126Z,2.4
2023-04-15T16:10:52.727Z,4.5
2023-04-15T16:15:52.297Z,2.4
2023-04-15T16:20:51.881Z,2.8
2023-04-15T16:25:51.433Z,5.3
2023-04-15T16:30:50.970Z,7.8
2023-04-15T16:35:50.540Z,6.7
2023-04-15T16:40:50.127Z,10.7
2023-04-15T16:45:49.678Z,7.9
2023-04-15T16:50:49.218Z,3.7
2023-04-15T16:55:48.788Z,4.9
2023-04-15T17:00:48.358Z,7.3
2023-04-15T17:05:47.966Z,9.5
2023-04-15T17:10:47.508Z,9
2023-04-15T17:15:47.072Z,14
2023-04-15T17:20:46.554Z,12.8
2023-04-15T17:25:46.017Z,10.3
2023-04-15T17:30:45.590Z,11.6
2023-04-15T17:35:45.056Z,10
2023-04-15T17:40:44.597Z,14
2023-04-15T17:45:44.095Z,8.5
2023-04-15T17:50:43.603Z,7.8
2023-04-15T17:55:43.129Z,13.3
2023-04-15T18:00:42.596Z,11.1
2023-04-15T18:05:42.805Z,14.5
2023-04-15T18:10:41.498Z,12.1
2023-04-15T18:15:40.986Z,10.7
2023-04-15T18:20:40.479Z,25.8
2023-04-15T18:25:40.021Z,8.7
2023-04-15T18:30:39.461Z,8.4
2023-04-15T18:35:38.969Z,10.7
2023-04-15T18:40:38.357Z,13
2023-04-15T18:45:37.828Z,8.7
2023-04-15T18:50:37.234Z,6.8
2023-04-15T18:55:36.726Z,5.3
2023-04-15T19:00:36.154Z,7
2023-04-15T19:05:35.597Z,2.5
2023-04-15T19:10:35.066Z,1.4
2023-04-15T19:15:34.484Z,1.9
2023-04-15T19:20:37.123Z,1.6
2023-04-15T19:25:33.395Z,1.3
2023-04-15T19:30:32.909Z,0.8
2023-04-15T19:35:32.300Z,1
2023-04-15T19:40:31.737Z,0.7
2023-04-15T19:45:31.196Z,1.7
2023-04-15T19:50:30.633Z,0.8
2023-04-15T19:55:30.078Z,0.6
2023-04-15T20:00:29.532Z,1.1
2023-04-15T20:05:28.970Z,1
2023-04-15T20:10:28.413Z,1.1
2023-04-15T20:15:27.799Z,1.2
2023-04-15T20:20:27.210Z,1.1
2023-04-15T20:25:26.601Z,0.6
2023-04-15T20:30:26.090Z,1.9
2023-04-15T20:35:25.488Z,1.7
2023-04-15T20:40:24.877Z,3.9
2023-04-15T20:45:24.317Z,1.1
2023-04-15T20:50:23.747Z,2.4
2023-04-15T20:55:23.188Z,3.7
2023-04-15T21:00:22.602Z,1.9
2023-04-15T21:05:21.987Z,0.9
2023-04-15T21:10:21.378Z,1.5
2023-04-15T21:15:20.842Z,1
2023-04-15T21:20:20.250Z,1.6
2023-04-15T21:25:19.664Z,1.3
2023-04-15T21:30:19.065Z,1.2
2023-04-15T21:35:18.394Z,0.9
2023-04-15T21:40:17.846Z,0.6
2023-04-15T21:45:17.232Z,0.9
2023-04-15T21:50:16.651Z,1.4
2023-04-15T21:55:16.055Z,1
2023-04-15T22:00:15.486Z,0.8
2023-04-15T22:05:14.892Z,0.6
2023-04-15T22:10:14.346Z,0.7
2023-04-15T22:15:13.768Z,0.7
2023-04-15T22:20:13.127Z,0.4
2023-04-15T22:25:12.506Z,0.5
2023-04-15T22:30:11.917Z,0.3
2023-04-15T22:35:11.362Z,0.7
2023-04-15T22:40:10.703Z,0.8
2023-04-15T22:45:10.152Z,1.6
2023-04-15T22:50:09.545Z,1.4
2023-04-15T22:55:08.976Z,1.6
2023-04-15T23:00:08.360Z,1.2
2023-04-15T23:05:12.971Z,0.6
2023-04-15T23:10:07.183Z,0.6
2023-04-15T23:15:06.635Z,0.6
2023-04-15T23:20:05.999Z,0.7
2023-04-15T23:25:05.428Z,0.6
2023-04-15T23:30:04.829Z,0.6
2023-04-15T23:35:04.266Z,1.2
2023-04-15T23:40:03.629Z,1
2023-04-15T23:45:03.134Z,0.5
2023-04-15T23:50:02.506Z,0.8
2023-04-15T23:55:01.933Z,0.8
